createdAt,value
2023-03-05T00:01:34.921Z,1.50
2023-03-05T00:06:28.583Z,0.95
2023-03-05T00:11:21.187Z,1.00
2023-03-05T00:16:14.817Z,0.70
2023-03-05T00:21:18.495Z,0.85
2023-03-05T00:26:10.150Z,0.70
2023-03-05T00:31:02.057Z,1.13
2023-03-05T00:35:54.212Z,0.80
2023-03-05T00:40:45.940Z,0.70
2023-03-05T00:45:37.606Z,0.65
2023-03-05T00:50:29.280Z,0.90
2023-03-05T00:55:21.678Z,0.70
2023-03-05T01:00:15.103Z,0.52
2023-03-05T01:05:07.314Z,1.05
2023-03-05T01:09:59.101Z,1.35
2023-03-05T01:14:50.676Z,1.40
2023-03-05T01:19:43.974Z,0.70
2023-03-05T01:24:35.612Z,1.20
2023-03-05T01:29:28.278Z,1.52
2023-03-05T01:34:21.436Z,1.20
2023-03-05T01:39:13.625Z,1.85
2023-03-05T01:44:05.444Z,1.73
2023-03-05T01:49:13.026Z,1.75
2023-03-05T01:54:07.434Z,0.90
2023-03-05T01:59:03.778Z,1.10
2023-03-05T02:03:55.466Z,1.15
2023-03-05T02:08:47.115Z,1.23
2023-03-05T02:13:40.804Z,1.40
2023-03-05T02:18:32.549Z,1.10
2023-03-05T02:23:27.575Z,0.80
2023-03-05T02:28:31.785Z,0.70
2023-03-05T02:33:24.379Z,1.75
2023-03-05T02:38:18.610Z,0.80
2023-03-05T02:43:10.821Z,1.02
2023-03-05T02:48:02.518Z,1.00
2023-03-05T02:52:54.340Z,0.82
2023-03-05T02:57:46.041Z,0.75
2023-03-05T03:02:37.692Z,0.70
2023-03-05T03:07:29.950Z,0.70
2023-03-05T03:12:21.752Z,0.70
2023-03-05T03:17:16.200Z,0.70
2023-03-05T03:22:09.225Z,0.85
2023-03-05T03:27:01.746Z,0.70
2023-03-05T03:31:53.502Z,0.80
2023-03-05T03:36:46.569Z,0.90
2023-03-05T03:41:42.281Z,1.48
2023-03-05T03:46:34.100Z,0.90
2023-03-05T03:51:25.716Z,0.90
2023-03-05T03:56:17.421Z,1.10
2023-03-05T04:01:09.186Z,1.13
2023-03-05T04:06:00.827Z,2.08
2023-03-05T04:10:52.592Z,1.40
2023-03-05T04:15:44.590Z,1.27
2023-03-05T04:20:36.298Z,1.38
2023-03-05T04:25:27.929Z,1.45
2023-03-05T04:30:19.771Z,1.25
2023-03-05T04:35:11.497Z,1.40
2023-03-05T04:40:03.507Z,0.95
2023-03-05T04:44:55.192Z,1.08
2023-03-05T04:49:46.904Z,0.90
2023-03-05T04:54:38.656Z,0.82
2023-03-05T04:59:30.546Z,0.85
2023-03-05T05:04:22.404Z,1.10
2023-03-05T05:09:14.331Z,0.90
2023-03-05T05:14:06.024Z,0.95
2023-03-05T05:18:57.763Z,0.75
2023-03-05T05:23:49.605Z,1.83
2023-03-05T05:28:43.526Z,1.00
2023-03-05T05:33:35.517Z,0.90
2023-03-05T05:38:27.096Z,1.05
2023-03-05T05:43:18.733Z,1.17
2023-03-05T05:48:10.290Z,1.15
2023-03-05T05:53:01.923Z,0.80
2023-03-05T05:57:53.490Z,0.93
2023-03-05T06:02:45.276Z,0.82
2023-03-05T06:07:36.992Z,0.93
2023-03-05T06:12:28.759Z,0.88
2023-03-05T06:17:29.916Z,0.80
2023-03-05T06:22:22.073Z,0.70
2023-03-05T06:27:13.610Z,1.15
2023-03-05T06:32:05.656Z,1.10
2023-03-05T06:36:57.247Z,0.85
2023-03-05T06:41:51.933Z,0.65
2023-03-05T06:46:43.608Z,1.38
2023-03-05T06:51:37.682Z,1.38
2023-03-05T06:56:29.609Z,1.27
2023-03-05T07:01:21.854Z,0.85
2023-03-05T07:06:14.595Z,1.48
2023-03-05T07:11:18.819Z,1.33
2023-03-05T07:16:14.874Z,1.05
2023-03-05T07:21:08.153Z,1.30
2023-03-05T07:26:03.882Z,2.05
2023-03-05T07:31:07.825Z,1.17
2023-03-05T07:36:01.429Z,1.42
2023-03-05T07:40:53.112Z,1.08
2023-03-05T07:45:45.740Z,1.50
2023-03-05T07:50:37.417Z,1.20
2023-03-05T07:55:29.609Z,1.20
2023-03-05T08:00:21.532Z,1.80
2023-03-05T08:05:13.144Z,1.30
2023-03-05T08:10:05.877Z,1.45
2023-03-05T08:14:57.506Z,1.83
2023-03-05T08:19:49.153Z,1.90
2023-03-05T08:24:40.988Z,1.40
2023-03-05T08:29:32.677Z,1.30
2023-03-05T08:34:24.337Z,0.80
2023-03-05T08:39:16.743Z,1.13
2023-03-05T08:44:08.745Z,0.90
2023-03-05T08:49:00.531Z,0.90
2023-03-05T08:53:53.709Z,1.15
2023-03-05T08:58:46.621Z,1.00
2023-03-05T09:03:38.880Z,1.17
2023-03-05T09:08:30.645Z,0.80
2023-03-05T09:13:22.393Z,0.73
2023-03-05T09:18:14.066Z,0.70
2023-03-05T09:23:05.763Z,0.80
2023-03-05T09:27:57.327Z,0.80
2023-03-05T09:32:48.996Z,0.70
2023-03-05T09:37:40.609Z,0.60
2023-03-05T09:42:41.510Z,0.98
2023-03-05T09:47:46.640Z,0.70
2023-03-05T09:52:53.791Z,0.60
2023-03-05T09:57:51.896Z,0.50
2023-03-05T10:02:53.779Z,0.60
2023-03-05T10:07:54.564Z,0.52
2023-03-05T10:12:56.442Z,0.70
2023-03-05T10:18:00.121Z,0.65
2023-03-05T10:23:25.718Z,0.70
2023-03-05T10:28:40.796Z,0.47
2023-03-05T10:33:47.862Z,0.60
2023-03-05T10:39:06.853Z,0.60
2023-03-05T10:44:33.714Z,1.15
2023-03-05T10:49:36.972Z,0.60
2023-03-05T10:54:37.623Z,0.60
2023-03-05T10:59:29.236Z,0.90
2023-03-05T11:04:29.542Z,0.60
2023-03-05T11:09:29.423Z,0.80
2023-03-05T11:14:31.379Z,0.52
2023-03-05T11:19:30.069Z,0.52
2023-03-05T11:24:21.825Z,0.60
2023-03-05T11:29:26.175Z,0.50
2023-03-05T11:34:17.782Z,0.70
2023-03-05T11:39:30.501Z,0.60
2023-03-05T11:44:29.618Z,0.60
2023-03-05T11:49:25.525Z,0.70
2023-03-05T11:54:23.931Z,1.00
2023-03-05T11:59:32.074Z,0.70
2023-03-05T12:04:25.066Z,0.68
2023-03-05T12:09:43.124Z,0.73
2023-03-05T12:15:16.146Z,0.83
2023-03-05T12:20:38.222Z,0.63
2023-03-05T12:25:42.058Z,0.85
2023-03-05T12:30:42.529Z,0.65
2023-03-05T12:35:41.177Z,2.35
2023-03-05T12:40:34.842Z,0.50
2023-03-05T12:45:33.986Z,0.40
2023-03-05T12:50:28.693Z,0.40
2023-03-05T12:55:28.085Z,0.40
2023-03-05T13:00:39.750Z,0.73
2023-03-05T13:05:35.677Z,0.40
2023-03-05T13:10:29.422Z,0.30
2023-03-05T13:15:23.691Z,0.30
2023-03-05T13:20:37.707Z,0.30
2023-03-05T13:25:29.718Z,0.20
2023-03-05T13:30:24.510Z,0.30
2023-03-05T13:35:16.198Z,0.10
2023-03-05T13:40:23.297Z,0.10
2023-03-05T13:45:25.713Z,0.10
2023-03-05T13:50:38.026Z,0.20
2023-03-05T13:55:29.845Z,0.20
2023-03-05T14:00:35.851Z,0.40
2023-03-05T14:05:30.940Z,0.40
2023-03-05T14:10:25.531Z,0.40
2023-03-05T14:15:32.470Z,0.30
2023-03-05T14:20:29.917Z,0.57
2023-03-05T14:25:39.897Z,0.20
2023-03-05T14:30:32.198Z,0.20
2023-03-05T14:35:27.343Z,0.20
2023-03-05T14:40:27.802Z,0.10
2023-03-05T14:45:22.690Z,0.20
2023-03-05T14:50:20.101Z,0.28
2023-03-05T14:55:20.747Z,0.30
2023-03-05T15:00:20.189Z,0.17
2023-03-05T15:05:12.075Z,0.10
2023-03-05T15:10:05.411Z,0.10
2023-03-05T15:14:57.293Z,0.10
2023-03-05T15:19:49.767Z,0.10
2023-03-05T15:24:41.940Z,0.10
2023-03-05T15:29:34.079Z,0.10
2023-03-05T15:34:25.747Z,0.10
2023-03-05T15:39:17.416Z,0.10
2023-03-05T15:44:09.091Z,0.10
2023-03-05T15:49:01.282Z,0.10
2023-03-05T15:53:54.441Z,0.20
2023-03-05T15:58:48.569Z,0.10
2023-03-05T16:03:40.188Z,0.15
2023-03-05T16:08:35.134Z,0.10
2023-03-05T16:13:29.334Z,0.10
2023-03-05T16:18:21.703Z,0.10
2023-03-05T16:23:13.690Z,0.10
2023-03-05T16:28:05.720Z,0.10
2023-03-05T16:32:57.376Z,0.10
2023-03-05T16:37:49.165Z,0.40
2023-03-05T16:42:40.833Z,0.30
2023-03-05T16:47:32.490Z,0.30
2023-03-05T16:52:24.093Z,0.50
2023-03-05T16:57:16.072Z,0.60
2023-03-05T17:02:08.088Z,0.50
2023-03-05T17:06:59.767Z,0.50
2023-03-05T17:11:52.541Z,0.40
2023-03-05T17:16:44.501Z,0.30
2023-03-05T17:21:36.314Z,0.40
2023-03-05T17:26:28.103Z,0.30
2023-03-05T17:31:19.858Z,0.30
2023-03-05T17:36:31.052Z,0.38
2023-03-05T17:41:23.239Z,0.40
2023-03-05T17:46:15.893Z,0.38
2023-03-05T17:51:10.020Z,0.40
2023-03-05T17:56:02.289Z,0.40
2023-03-05T18:00:53.907Z,0.50
2023-03-05T18:05:45.619Z,0.50
2023-03-05T18:10:37.339Z,0.70
2023-03-05T18:15:29.811Z,0.80
2023-03-05T18:20:24.307Z,0.80
2023-03-05T18:25:15.982Z,0.90
2023-03-05T18:30:08.267Z,0.77
2023-03-05T18:34:59.945Z,1.27
2023-03-05T18:39:51.923Z,0.98
2023-03-05T18:44:43.608Z,1.13
2023-03-05T18:49:35.486Z,1.98
2023-03-05T18:54:27.244Z,3.30
2023-03-05T18:59:18.803Z,3.70
2023-03-05T19:04:11.514Z,4.30
2023-03-05T19:09:08.730Z,4.68
2023-03-05T19:14:00.526Z,2.35
2023-03-05T19:19:16.560Z,1.17
2023-03-05T19:24:08.467Z,0.52
2023-03-05T19:29:00.153Z,0.50
2023-03-05T19:33:51.764Z,0.80
2023-03-05T19:38:43.497Z,0.80
2023-03-05T19:43:35.793Z,0.70
2023-03-05T19:48:27.857Z,0.60
2023-03-05T19:53:19.500Z,0.80
2023-03-05T19:58:11.315Z,1.20
2023-03-05T20:03:03.062Z,0.95
2023-03-05T20:07:54.710Z,2.08
2023-03-05T20:12:48.240Z,2.13
2023-03-05T20:17:40.086Z,2.55
2023-03-05T20:22:31.791Z,1.77
2023-03-05T20:27:23.446Z,1.27
2023-03-05T20:32:15.299Z,0.90
2023-03-05T20:37:07.611Z,0.40
2023-03-05T20:42:00.546Z,0.40
2023-03-05T20:47:02.647Z,0.50
2023-03-05T20:51:54.321Z,0.50
2023-03-05T20:56:45.930Z,0.40
2023-03-05T21:01:39.919Z,0.60
2023-03-05T21:06:32.865Z,0.50
2023-03-05T21:11:24.821Z,0.60
2023-03-05T21:16:22.642Z,0.70
2023-03-05T21:21:14.760Z,0.65
2023-03-05T21:26:06.640Z,0.93
2023-03-05T21:30:58.793Z,1.02
2023-03-05T21:35:54.693Z,1.20
2023-03-05T21:40:48.552Z,1.45
2023-03-05T21:45:41.191Z,1.52
2023-03-05T21:50:34.525Z,1.27
2023-03-05T21:55:33.030Z,1.10
2023-03-05T22:00:25.577Z,1.00
2023-03-05T22:05:17.756Z,1.70
2023-03-05T22:10:16.152Z,1.30
2023-03-05T22:15:08.554Z,2.15
2023-03-05T22:20:00.129Z,1.30
2023-03-05T22:24:51.748Z,1.08
2023-03-05T22:29:43.404Z,1.15
2023-03-05T22:34:35.550Z,0.80
2023-03-05T22:39:27.128Z,1.00
2023-03-05T22:44:18.758Z,0.70
2023-03-05T22:49:10.686Z,0.80
2023-03-05T22:54:02.476Z,0.85
2023-03-05T22:58:54.130Z,0.90
2023-03-05T23:03:47.194Z,0.90
2023-03-05T23:08:39.009Z,0.70
2023-03-05T23:13:30.636Z,0.98
2023-03-05T23:18:22.275Z,0.93
2023-03-05T23:23:14.021Z,1.10
2023-03-05T23:28:05.738Z,1.10
2023-03-05T23:33:02.576Z,0.77
2023-03-05T23:37:55.533Z,0.70
2023-03-05T23:42:47.560Z,0.70
2023-03-05T23:47:39.350Z,0.60
2023-03-05T23:52:30.989Z,0.80
2023-03-05T23:57:22.614Z,0.70
